Hordville, NE (68846)

10:40 PM CDT on August 30, 2016 (GMT -0500)
Aurora Municipal | | Change Station

Elev 1804 ft 40.89 °N, 97.99 °W | Updated 25 minutes ago

Clear
Clear
69 °F
Feels Like 69 °F
N
0
Wind Variable Wind from North

Today
High -- | Low -- °F
--% Chance of Precip.
Yesterday
High -- | Low -- °F
Precip. -- in
Pressure 30.21 in
Visibility 7.0 miles
Clouds Clear
Dew Point 69 °F
Humidity 100%
Rainfall 0.18 in
Snow Depth Not available.
6:56 AM 8:06 PM
Waning Crescent, 2% visible
METAR KAUH 310315Z AUTO 00000KT 7SM CLR 21/21 A3021 RMK AO2 T02050205
Pressure 30.21 in
Visibility 7.0 miles
Clouds Clear
Dew Point 69 °F
Humidity 100%
Rainfall 0.18 in
Snow Depth Not available.
6:56 AM 8:06 PM
Waning Crescent, 2% visible
METAR KAUH 310315Z AUTO 00000KT 7SM CLR 21/21 A3021 RMK AO2 T02050205

10-Day Weather Forecast

Almanac

Astronomy

Aug. 30, 2016 Rise Set
Actual Time
Civil Twilight
Nautical Twilight
Astronomical Twilight
Moon
Length of Visible Light
Length of Day
Tomorrow will be .
, % of the Moon is Illuminated

Today's Extremes

State Highs State Lows

Community

WunderPhotos

Upload Photos

1,936,021 photos uploaded!

WunderBlog® & News

Nearby

Air Quality

  Air Quality AQ Index Pollutant
Not available.

Snow Depth

Station Depth Elevation

Earthquake Activity

City Distance Mag. Time & Date
Minimum magnitude displayed is 2.5.

Coastal Water Temperatures

Place Temperature

Stations

Nearby Weather Stations

Station Location Temp. Windchill Dew Point Humidity Wind Precip. Elev Updated Type
                   

Watches & Warnings

There are currently no watches in effect.